sensor_id;sensor_type;location;lat;lon;timestamp;temperature;humidity
5940;DHT22;2995;-31.998;115.906;2023-09-12T00:01:19;17.00;99.90
5940;DHT22;2995;-31.998;115.906;2023-09-12T00:03:50;17.00;99.90
5940;DHT22;2995;-31.998;115.906;2023-09-12T00:06:24;17.10;99.90
5940;DHT22;2995;-31.998;115.906;2023-09-12T00:08:55;17.20;99.90
5940;DHT22;2995;-31.998;115.906;2023-09-12T00:11:26;17.40;99.90
5940;DHT22;2995;-31.998;115.906;2023-09-12T00:13:58;17.50;99.90
5940;DHT22;2995;-31.998;115.906;2023-09-12T00:16:29;17.70;99.90
5940;DHT22;2995;-31.998;115.906;2023-09-12T00:19:00;17.80;99.90
5940;DHT22;2995;-31.998;115.906;2023-09-12T00:21:33;17.90;99.90
5940;DHT22;2995;-31.998;115.906;2023-09-12T00:24:05;18.10;99.90
5940;DHT22;2995;-31.998;115.906;2023-09-12T00:26:36;18.10;99.90
5940;DHT22;2995;-31.998;115.906;2023-09-12T00:29:08;18.20;99.90
5940;DHT22;2995;-31.998;115.906;2023-09-12T00:31:39;18.30;99.90
5940;DHT22;2995;-31.998;115.906;2023-09-12T00:34:11;18.30;99.90
5940;DHT22;2995;-31.998;115.906;2023-09-12T00:36:48;18.30;99.90
5940;DHT22;2995;-31.998;115.906;2023-09-12T00:39:19;18.50;99.90
5940;DHT22;2995;-31.998;115.906;2023-09-12T00:41:50;18.50;99.90
5940;DHT22;2995;-31.998;115.906;2023-09-12T00:44:22;18.60;99.90
5940;DHT22;2995;-31.998;115.906;2023-09-12T00:46:54;18.60;99.90
5940;DHT22;2995;-31.998;115.906;2023-09-12T00:49:26;18.70;99.90
5940;DHT22;2995;-31.998;115.906;2023-09-12T00:52:01;18.70;99.90
5940;DHT22;2995;-31.998;115.906;2023-09-12T00:54:32;18.80;99.90
5940;DHT22;2995;-31.998;115.906;2023-09-12T00:57:04;18.90;99.90
5940;DHT22;2995;-31.998;115.906;2023-09-12T00:59:35;18.90;99.90
5940;DHT22;2995;-31.998;115.906;2023-09-12T01:02:07;19.00;99.90
5940;DHT22;2995;-31.998;115.906;2023-09-12T01:04:39;19.20;99.90
5940;DHT22;2995;-31.998;115.906;2023-09-12T01:07:12;19.20;99.90
5940;DHT22;2995;-31.998;115.906;2023-09-12T01:09:44;19.20;99.90
5940;DHT22;2995;-31.998;115.906;2023-09-12T01:12:15;19.40;99.90
5940;DHT22;2995;-31.998;115.906;2023-09-12T01:14:47;19.50;99.90
5940;DHT22;2995;-31.998;115.906;2023-09-12T01:17:18;19.70;99.90
5940;DHT22;2995;-31.998;115.906;2023-09-12T01:19:49;19.70;99.90
5940;DHT22;2995;-31.998;115.906;2023-09-12T01:22:46;19.70;99.90
5940;DHT22;2995;-31.998;115.906;2023-09-12T01:25:52;19.70;99.90
5940;DHT22;2995;-31.998;115.906;2023-09-12T01:28:33;19.80;99.90
5940;DHT22;2995;-31.998;115.906;2023-09-12T01:31:06;19.90;99.90
5940;DHT22;2995;-31.998;115.906;2023-09-12T01:33:37;20.10;99.90
5940;DHT22;2995;-31.998;115.906;2023-09-12T01:36:10;20.20;99.90
5940;DHT22;2995;-31.998;115.906;2023-09-12T01:38:41;20.30;99.90
5940;DHT22;2995;-31.998;115.906;2023-09-12T01:41:13;20.50;99.90
5940;DHT22;2995;-31.998;115.906;2023-09-12T01:43:48;20.60;99.90
5940;DHT22;2995;-31.998;115.906;2023-09-12T01:46:22;20.60;99.90
5940;DHT22;2995;-31.998;115.906;2023-09-12T01:48:55;20.60;99.90
5940;DHT22;2995;-31.998;115.906;2023-09-12T01:51:28;20.80;99.90
5940;DHT22;2995;-31.998;115.906;2023-09-12T01:54:00;21.00;99.90
5940;DHT22;2995;-31.998;115.906;2023-09-12T01:56:32;21.30;99.90
5940;DHT22;2995;-31.998;115.906;2023-09-12T01:59:06;21.40;99.90
5940;DHT22;2995;-31.998;115.906;2023-09-12T02:01:37;21.60;99.90
5940;DHT22;2995;-31.998;115.906;2023-09-12T02:04:14;21.60;99.90
5940;DHT22;2995;-31.998;115.906;2023-09-12T02:06:45;21.60;99.90
5940;DHT22;2995;-31.998;115.906;2023-09-12T02:09:16;21.70;99.90
5940;DHT22;2995;-31.998;115.906;2023-09-12T02:11:48;21.80;99.90
5940;DHT22;2995;-31.998;115.906;2023-09-12T02:14:21;22.00;99.90
5940;DHT22;2995;-31.998;115.906;2023-09-12T02:16:52;22.10;99.90
5940;DHT22;2995;-31.998;115.906;2023-09-12T02:19:23;22.00;99.90
5940;DHT22;2995;-31.998;115.906;2023-09-12T02:21:55;22.10;99.90
5940;DHT22;2995;-31.998;115.906;2023-09-12T02:24:26;22.10;99.90
5940;DHT22;2995;-31.998;115.906;2023-09-12T02:26:57;22.20;99.90
5940;DHT22;2995;-31.998;115.906;2023-09-12T02:29:30;22.20;99.90
5940;DHT22;2995;-31.998;115.906;2023-09-12T02:32:02;22.30;99.90
5940;DHT22;2995;-31.998;115.906;2023-09-12T02:34:33;22.40;99.90
5940;DHT22;2995;-31.998;115.906;2023-09-12T02:37:04;22.40;99.90
5940;DHT22;2995;-31.998;115.906;2023-09-12T02:39:36;22.40;99.90
5940;DHT22;2995;-31.998;115.906;2023-09-12T02:42:07;22.60;99.90
5940;DHT22;2995;-31.998;115.906;2023-09-12T02:44:40;22.80;99.90
5940;DHT22;2995;-31.998;115.906;2023-09-12T02:47:11;22.80;99.90
5940;DHT22;2995;-31.998;115.906;2023-09-12T02:49:43;22.90;99.90
5940;DHT22;2995;-31.998;115.906;2023-09-12T02:52:14;22.70;99.90
5940;DHT22;2995;-31.998;115.906;2023-09-12T02:54:45;22.60;99.90
5940;DHT22;2995;-31.998;115.906;2023-09-12T02:57:17;22.50;99.90
5940;DHT22;2995;-31.998;115.906;2023-09-12T02:59:50;22.50;99.90
5940;DHT22;2995;-31.998;115.906;2023-09-12T03:02:22;22.70;99.90
5940;DHT22;2995;-31.998;115.906;2023-09-12T03:04:53;23.10;99.90
5940;DHT22;2995;-31.998;115.906;2023-09-12T03:07:24;23.20;99.90
5940;DHT22;2995;-31.998;115.906;2023-09-12T03:09:56;23.30;99.90
5940;DHT22;2995;-31.998;115.906;2023-09-12T03:12:27;23.40;99.90
5940;DHT22;2995;-31.998;115.906;2023-09-12T03:15:00;23.50;99.90
5940;DHT22;2995;-31.998;115.906;2023-09-12T03:17:31;23.40;99.90
5940;DHT22;2995;-31.998;115.906;2023-09-12T03:20:03;23.40;99.90
5940;DHT22;2995;-31.998;115.906;2023-09-12T03:22:36;23.50;99.90
5940;DHT22;2995;-31.998;115.906;2023-09-12T03:25:08;23.60;99.90
5940;DHT22;2995;-31.998;115.906;2023-09-12T03:27:39;23.30;99.90
5940;DHT22;2995;-31.998;115.906;2023-09-12T03:30:13;23.20;99.90
5940;DHT22;2995;-31.998;115.906;2023-09-12T03:32:44;23.10;99.90
5940;DHT22;2995;-31.998;115.906;2023-09-12T03:35:16;23.40;99.90
5940;DHT22;2995;-31.998;115.906;2023-09-12T03:37:47;23.60;99.90
5940;DHT22;2995;-31.998;115.906;2023-09-12T03:40:19;23.80;99.90
5940;DHT22;2995;-31.998;115.906;2023-09-12T03:42:50;23.90;99.90
5940;DHT22;2995;-31.998;115.906;2023-09-12T03:45:23;24.00;99.90
5940;DHT22;2995;-31.998;115.906;2023-09-12T03:47:54;24.10;99.90
5940;DHT22;2995;-31.998;115.906;2023-09-12T03:50:26;24.30;99.90
5940;DHT22;2995;-31.998;115.906;2023-09-12T03:52:57;24.10;99.90
5940;DHT22;2995;-31.998;115.906;2023-09-12T03:55:28;23.70;99.90
5940;DHT22;2995;-31.998;115.906;2023-09-12T03:57:59;23.60;99.90
5940;DHT22;2995;-31.998;115.906;2023-09-12T04:00:33;23.30;99.90
5940;DHT22;2995;-31.998;115.906;2023-09-12T04:03:04;23.40;99.90
5940;DHT22;2995;-31.998;115.906;2023-09-12T04:05:35;23.70;99.90
5940;DHT22;2995;-31.998;115.906;2023-09-12T04:08:07;23.50;99.90
5940;DHT22;2995;-31.998;115.906;2023-09-12T04:10:38;23.40;99.90
5940;DHT22;2995;-31.998;115.906;2023-09-12T04:13:09;23.60;99.90
5940;DHT22;2995;-31.998;115.906;2023-09-12T04:15:42;23.80;99.90
5940;DHT22;2995;-31.998;115.906;2023-09-12T04:18:13;23.70;99.90
5940;DHT22;2995;-31.998;115.906;2023-09-12T04:20:45;23.60;99.90
5940;DHT22;2995;-31.998;115.906;2023-09-12T04:23:16;23.70;99.90
5940;DHT22;2995;-31.998;115.906;2023-09-12T04:25:48;23.80;99.90
5940;DHT22;2995;-31.998;115.906;2023-09-12T04:28:19;24.00;99.90
5940;DHT22;2995;-31.998;115.906;2023-09-12T04:30:55;23.90;99.90
5940;DHT22;2995;-31.998;115.906;2023-09-12T04:33:31;23.90;99.90
5940;DHT22;2995;-31.998;115.906;2023-09-12T04:36:02;24.10;99.90
5940;DHT22;2995;-31.998;115.906;2023-09-12T04:38:33;24.20;99.90
5940;DHT22;2995;-31.998;115.906;2023-09-12T04:41:05;24.30;99.90
5940;DHT22;2995;-31.998;115.906;2023-09-12T04:43:36;24.40;99.90
5940;DHT22;2995;-31.998;115.906;2023-09-12T04:46:09;24.50;99.90
5940;DHT22;2995;-31.998;115.906;2023-09-12T04:48:41;24.40;99.90
5940;DHT22;2995;-31.998;115.906;2023-09-12T04:51:12;24.10;99.90
5940;DHT22;2995;-31.998;115.906;2023-09-12T04:53:43;24.30;99.90
5940;DHT22;2995;-31.998;115.906;2023-09-12T04:56:19;24.50;99.90
5940;DHT22;2995;-31.998;115.906;2023-09-12T04:58:52;24.50;99.90
5940;DHT22;2995;-31.998;115.906;2023-09-12T05:01:25;24.50;99.90
5940;DHT22;2995;-31.998;115.906;2023-09-12T05:03:57;24.40;99.90
5940;DHT22;2995;-31.998;115.906;2023-09-12T05:06:28;24.50;99.90
5940;DHT22;2995;-31.998;115.906;2023-09-12T05:08:59;24.60;99.90
5940;DHT22;2995;-31.998;115.906;2023-09-12T05:11:31;24.60;99.90
5940;DHT22;2995;-31.998;115.906;2023-09-12T05:14:02;24.50;99.90
5940;DHT22;2995;-31.998;115.906;2023-09-12T05:16:35;24.60;99.90
5940;DHT22;2995;-31.998;115.906;2023-09-12T05:19:07;24.60;99.90
5940;DHT22;2995;-31.998;115.906;2023-09-12T05:21:38;24.70;99.90
5940;DHT22;2995;-31.998;115.906;2023-09-12T05:24:10;24.70;99.90
5940;DHT22;2995;-31.998;115.906;2023-09-12T05:26:41;24.80;99.90
5940;DHT22;2995;-31.998;115.906;2023-09-12T05:29:12;24.80;99.90
5940;DHT22;2995;-31.998;115.906;2023-09-12T05:31:45;24.90;99.90
5940;DHT22;2995;-31.998;115.906;2023-09-12T05:34:17;24.80;99.90
5940;DHT22;2995;-31.998;115.906;2023-09-12T05:36:48;24.80;99.90
5940;DHT22;2995;-31.998;115.906;2023-09-12T05:39:19;24.80;99.90
5940;DHT22;2995;-31.998;115.906;2023-09-12T05:41:50;24.80;99.90
5940;DHT22;2995;-31.998;115.906;2023-09-12T05:44:22;24.80;99.90
5940;DHT22;2995;-31.998;115.906;2023-09-12T05:46:55;24.70;99.90
5940;DHT22;2995;-31.998;115.906;2023-09-12T05:49:26;24.70;99.90
5940;DHT22;2995;-31.998;115.906;2023-09-12T05:51:57;24.60;99.90
5940;DHT22;2995;-31.998;115.906;2023-09-12T05:54:28;24.70;99.90
5940;DHT22;2995;-31.998;115.906;2023-09-12T05:57:00;24.80;99.90
5940;DHT22;2995;-31.998;115.906;2023-09-12T05:59:31;24.90;99.90
5940;DHT22;2995;-31.998;115.906;2023-09-12T06:02:04;24.90;99.90
5940;DHT22;2995;-31.998;115.906;2023-09-12T06:04:37;24.70;99.90
5940;DHT22;2995;-31.998;115.906;2023-09-12T06:07:09;24.60;99.90
5940;DHT22;2995;-31.998;115.906;2023-09-12T06:09:40;24.60;99.90
5940;DHT22;2995;-31.998;115.906;2023-09-12T06:12:11;24.60;99.90
5940;DHT22;2995;-31.998;115.906;2023-09-12T06:14:42;24.60;99.90
5940;DHT22;2995;-31.998;115.906;2023-09-12T06:17:15;24.60;99.90
5940;DHT22;2995;-31.998;115.906;2023-09-12T06:19:47;24.60;99.90
5940;DHT22;2995;-31.998;115.906;2023-09-12T06:22:19;24.60;99.90
5940;DHT22;2995;-31.998;115.906;2023-09-12T06:24:51;24.40;99.90
5940;DHT22;2995;-31.998;115.906;2023-09-12T06:27:22;24.60;99.90
5940;DHT22;2995;-31.998;115.906;2023-09-12T06:29:53;24.40;99.90
5940;DHT22;2995;-31.998;115.906;2023-09-12T06:32:27;24.50;99.90
5940;DHT22;2995;-31.998;115.906;2023-09-12T06:34:58;24.40;99.90
5940;DHT22;2995;-31.998;115.906;2023-09-12T06:37:29;24.30;99.90
5940;DHT22;2995;-31.998;115.906;2023-09-12T06:40:00;24.40;99.90
5940;DHT22;2995;-31.998;115.906;2023-09-12T06:42:32;24.40;99.90
5940;DHT22;2995;-31.998;115.906;2023-09-12T06:45:03;24.40;99.90
5940;DHT22;2995;-31.998;115.906;2023-09-12T06:47:36;24.30;99.90
5940;DHT22;2995;-31.998;115.906;2023-09-12T06:50:08;24.30;99.90
5940;DHT22;2995;-31.998;115.906;2023-09-12T06:52:39;24.30;99.90
5940;DHT22;2995;-31.998;115.906;2023-09-12T06:55:11;24.20;99.90
5940;DHT22;2995;-31.998;115.906;2023-09-12T06:57:42;24.20;99.90
5940;DHT22;2995;-31.998;115.906;2023-09-12T07:00:14;24.10;99.90
5940;DHT22;2995;-31.998;115.906;2023-09-12T07:02:47;24.20;99.90
5940;DHT22;2995;-31.998;115.906;2023-09-12T07:05:19;24.10;99.90
5940;DHT22;2995;-31.998;115.906;2023-09-12T07:07:50;24.00;99.90
5940;DHT22;2995;-31.998;115.906;2023-09-12T07:10:21;23.90;99.90
5940;DHT22;2995;-31.998;115.906;2023-09-12T07:12:53;23.90;99.90
5940;DHT22;2995;-31.998;115.906;2023-09-12T07:15:25;23.90;99.90
5940;DHT22;2995;-31.998;115.906;2023-09-12T07:17:58;24.00;99.90
5940;DHT22;2995;-31.998;115.906;2023-09-12T07:20:30;23.90;99.90
5940;DHT22;2995;-31.998;115.906;2023-09-12T07:23:01;23.80;99.90
5940;DHT22;2995;-31.998;115.906;2023-09-12T07:25:38;23.60;99.90
5940;DHT22;2995;-31.998;115.906;2023-09-12T07:28:10;23.60;99.90
5940;DHT22;2995;-31.998;115.906;2023-09-12T07:30:42;23.60;99.90
5940;DHT22;2995;-31.998;115.906;2023-09-12T07:33:18;23.60;99.90
5940;DHT22;2995;-31.998;115.906;2023-09-12T07:35:50;23.60;99.90
5940;DHT22;2995;-31.998;115.906;2023-09-12T07:38:23;23.70;99.90
5940;DHT22;2995;-31.998;115.906;2023-09-12T07:40:54;23.50;99.90
5940;DHT22;2995;-31.998;115.906;2023-09-12T07:43:26;23.50;99.90
5940;DHT22;2995;-31.998;115.906;2023-09-12T07:45:57;23.60;99.90
5940;DHT22;2995;-31.998;115.906;2023-09-12T07:48:30;23.50;99.90
5940;DHT22;2995;-31.998;115.906;2023-09-12T07:51:10;23.50;99.90
5940;DHT22;2995;-31.998;115.906;2023-09-12T07:53:42;23.60;99.90
5940;DHT22;2995;-31.998;115.906;2023-09-12T07:56:14;23.60;99.90
5940;DHT22;2995;-31.998;115.906;2023-09-12T07:58:45;23.50;99.90
5940;DHT22;2995;-31.998;115.906;2023-09-12T08:01:16;23.50;99.90
5940;DHT22;2995;-31.998;115.906;2023-09-12T08:03:49;23.30;99.90
5940;DHT22;2995;-31.998;115.906;2023-09-12T08:06:20;23.30;99.90
5940;DHT22;2995;-31.998;115.906;2023-09-12T08:08:53;23.40;99.90
5940;DHT22;2995;-31.998;115.906;2023-09-12T08:11:25;23.30;99.90
5940;DHT22;2995;-31.998;115.906;2023-09-12T08:13:56;23.20;99.90
5940;DHT22;2995;-31.998;115.906;2023-09-12T08:16:27;23.10;99.90
5940;DHT22;2995;-31.998;115.906;2023-09-12T08:19:01;22.80;99.90
5940;DHT22;2995;-31.998;115.906;2023-09-12T08:21:33;22.80;99.90
5940;DHT22;2995;-31.998;115.906;2023-09-12T08:24:04;22.70;99.90
5940;DHT22;2995;-31.998;115.906;2023-09-12T08:26:35;22.60;99.90
5940;DHT22;2995;-31.998;115.906;2023-09-12T08:29:07;22.60;99.90
5940;DHT22;2995;-31.998;115.906;2023-09-12T08:31:38;22.60;99.90
5940;DHT22;2995;-31.998;115.906;2023-09-12T08:34:11;22.60;99.90
5940;DHT22;2995;-31.998;115.906;2023-09-12T08:36:42;22.60;99.90
5940;DHT22;2995;-31.998;115.906;2023-09-12T08:39:15;22.50;99.90
5940;DHT22;2995;-31.998;115.906;2023-09-12T08:41:46;22.40;99.90
5940;DHT22;2995;-31.998;115.906;2023-09-12T08:44:18;22.30;99.90
5940;DHT22;2995;-31.998;115.906;2023-09-12T08:46:49;22.30;99.90
5940;DHT22;2995;-31.998;115.906;2023-09-12T08:49:22;22.20;99.90
5940;DHT22;2995;-31.998;115.906;2023-09-12T08:51:54;22.00;99.90
5940;DHT22;2995;-31.998;115.906;2023-09-12T08:54:25;21.90;99.90
5940;DHT22;2995;-31.998;115.906;2023-09-12T08:56:57;21.80;99.90
5940;DHT22;2995;-31.998;115.906;2023-09-12T08:59:29;21.80;99.90
5940;DHT22;2995;-31.998;115.906;2023-09-12T09:02:02;22.00;99.90
5940;DHT22;2995;-31.998;115.906;2023-09-12T09:04:37;22.00;99.90
5940;DHT22;2995;-31.998;115.906;2023-09-12T09:07:08;21.90;99.90
5940;DHT22;2995;-31.998;115.906;2023-09-12T09:09:41;21.80;99.90
5940;DHT22;2995;-31.998;115.906;2023-09-12T09:12:12;21.70;99.90
5940;DHT22;2995;-31.998;115.906;2023-09-12T09:14:44;21.70;99.90
5940;DHT22;2995;-31.998;115.906;2023-09-12T09:17:15;21.60;99.90
5940;DHT22;2995;-31.998;115.906;2023-09-12T09:19:49;21.70;99.90
5940;DHT22;2995;-31.998;115.906;2023-09-12T09:22:20;21.60;99.90
5940;DHT22;2995;-31.998;115.906;2023-09-12T09:24:55;21.50;99.90
5940;DHT22;2995;-31.998;115.906;2023-09-12T09:27:40;21.60;99.90
5940;DHT22;2995;-31.998;115.906;2023-09-12T09:30:12;21.50;99.90
5940;DHT22;2995;-31.998;115.906;2023-09-12T09:32:43;21.30;99.90
5940;DHT22;2995;-31.998;115.906;2023-09-12T09:35:18;21.30;99.90
5940;DHT22;2995;-31.998;115.906;2023-09-12T09:37:49;21.20;99.90
5940;DHT22;2995;-31.998;115.906;2023-09-12T09:40:23;21.10;99.90
5940;DHT22;2995;-31.998;115.906;2023-09-12T09:42:55;21.00;99.90
5940;DHT22;2995;-31.998;115.906;2023-09-12T09:45:27;20.80;99.90
5940;DHT22;2995;-31.998;115.906;2023-09-12T09:47:59;20.70;99.90
5940;DHT22;2995;-31.998;115.906;2023-09-12T09:50:37;20.70;99.90
5940;DHT22;2995;-31.998;115.906;2023-09-12T09:53:09;20.80;99.90
5940;DHT22;2995;-31.998;115.906;2023-09-12T09:55:40;20.70;99.90
5940;DHT22;2995;-31.998;115.906;2023-09-12T09:58:15;20.70;99.90
5940;DHT22;2995;-31.998;115.906;2023-09-12T10:00:47;20.70;99.90
5940;DHT22;2995;-31.998;115.906;2023-09-12T10:03:20;20.80;99.90
5940;DHT22;2995;-31.998;115.906;2023-09-12T10:05:57;20.70;99.90
5940;DHT22;2995;-31.998;115.906;2023-09-12T10:08:30;20.60;99.90
5940;DHT22;2995;-31.998;115.906;2023-09-12T10:11:02;20.60;99.90
5940;DHT22;2995;-31.998;115.906;2023-09-12T10:13:34;20.50;99.90
5940;DHT22;2995;-31.998;115.906;2023-09-12T10:16:07;20.40;99.90
5940;DHT22;2995;-31.998;115.906;2023-09-12T10:18:58;20.40;99.90
5940;DHT22;2995;-31.998;115.906;2023-09-12T10:21:32;20.40;99.90
5940;DHT22;2995;-31.998;115.906;2023-09-12T10:24:05;20.40;99.90
5940;DHT22;2995;-31.998;115.906;2023-09-12T10:26:36;20.30;99.90
5940;DHT22;2995;-31.998;115.906;2023-09-12T10:29:13;20.30;99.90
5940;DHT22;2995;-31.998;115.906;2023-09-12T10:31:45;20.20;99.90
5940;DHT22;2995;-31.998;115.906;2023-09-12T10:34:17;20.20;99.90
5940;DHT22;2995;-31.998;115.906;2023-09-12T10:36:51;20.10;99.90
5940;DHT22;2995;-31.998;115.906;2023-09-12T10:39:24;20.10;99.90
5940;DHT22;2995;-31.998;115.906;2023-09-12T10:41:59;20.10;99.90
5940;DHT22;2995;-31.998;115.906;2023-09-12T10:44:35;20.00;99.90
5940;DHT22;2995;-31.998;115.906;2023-09-12T10:47:07;19.90;99.90
5940;DHT22;2995;-31.998;115.906;2023-09-12T10:49:39;20.00;99.90
5940;DHT22;2995;-31.998;115.906;2023-09-12T10:52:25;20.00;99.90
5940;DHT22;2995;-31.998;115.906;2023-09-12T10:54:57;20.10;99.90
5940;DHT22;2995;-31.998;115.906;2023-09-12T10:57:28;20.00;99.90
5940;DHT22;2995;-31.998;115.906;2023-09-12T11:00:13;19.90;99.90
5940;DHT22;2995;-31.998;115.906;2023-09-12T11:02:44;19.90;99.90
5940;DHT22;2995;-31.998;115.906;2023-09-12T11:05:36;19.90;99.90
5940;DHT22;2995;-31.998;115.906;2023-09-12T11:08:09;19.70;99.90
5940;DHT22;2995;-31.998;115.906;2023-09-12T11:10:41;19.80;99.90
5940;DHT22;2995;-31.998;115.906;2023-09-12T11:13:19;19.80;99.90
5940;DHT22;2995;-31.998;115.906;2023-09-12T11:16:12;19.70;99.90
5940;DHT22;2995;-31.998;115.906;2023-09-12T11:19:12;19.70;99.90
5940;DHT22;2995;-31.998;115.906;2023-09-12T11:21:45;19.70;99.90
5940;DHT22;2995;-31.998;115.906;2023-09-12T11:24:19;19.70;99.90
5940;DHT22;2995;-31.998;115.906;2023-09-12T11:26:58;19.70;99.90
5940;DHT22;2995;-31.998;115.906;2023-09-12T11:29:30;19.80;99.90
5940;DHT22;2995;-31.998;115.906;2023-09-12T11:32:05;19.90;99.90
5940;DHT22;2995;-31.998;115.906;2023-09-12T11:34:38;19.80;99.90
5940;DHT22;2995;-31.998;115.906;2023-09-12T11:37:24;19.80;99.90
5940;DHT22;2995;-31.998;115.906;2023-09-12T11:39:57;19.80;99.90
5940;DHT22;2995;-31.998;115.906;2023-09-12T11:42:28;19.80;99.90
5940;DHT22;2995;-31.998;115.906;2023-09-12T11:45:00;19.80;99.90
5940;DHT22;2995;-31.998;115.906;2023-09-12T11:47:32;19.80;99.90
5940;DHT22;2995;-31.998;115.906;2023-09-12T11:50:03;19.70;99.90
5940;DHT22;2995;-31.998;115.906;2023-09-12T11:52:37;19.60;99.90
5940;DHT22;2995;-31.998;115.906;2023-09-12T11:55:11;19.40;99.90
5940;DHT22;2995;-31.998;115.906;2023-09-12T11:57:42;19.30;99.90
5940;DHT22;2995;-31.998;115.906;2023-09-12T12:00:14;19.40;99.90
5940;DHT22;2995;-31.998;115.906;2023-09-12T12:02:47;19.20;99.90
5940;DHT22;2995;-31.998;115.906;2023-09-12T12:05:19;19.10;99.90
5940;DHT22;2995;-31.998;115.906;2023-09-12T12:07:51;19.10;99.90
5940;DHT22;2995;-31.998;115.906;2023-09-12T12:10:24;19.00;99.90
5940;DHT22;2995;-31.998;115.906;2023-09-12T12:12:56;19.00;99.90
5940;DHT22;2995;-31.998;115.906;2023-09-12T12:15:29;19.10;99.90
5940;DHT22;2995;-31.998;115.906;2023-09-12T12:18:00;19.00;99.90
5940;DHT22;2995;-31.998;115.906;2023-09-12T12:20:31;18.90;99.90
5940;DHT22;2995;-31.998;115.906;2023-09-12T12:23:03;18.70;99.90
5940;DHT22;2995;-31.998;115.906;2023-09-12T12:25:37;18.70;99.90
5940;DHT22;2995;-31.998;115.906;2023-09-12T12:28:08;18.70;99.90
5940;DHT22;2995;-31.998;115.906;2023-09-12T12:30:40;18.80;99.90
5940;DHT22;2995;-31.998;115.906;2023-09-12T12:33:12;19.00;99.90
5940;DHT22;2995;-31.998;115.906;2023-09-12T12:35:43;19.00;99.90
5940;DHT22;2995;-31.998;115.906;2023-09-12T12:38:14;18.90;99.90
5940;DHT22;2995;-31.998;115.906;2023-09-12T12:40:47;18.90;99.90
5940;DHT22;2995;-31.998;115.906;2023-09-12T12:43:18;18.90;99.90
5940;DHT22;2995;-31.998;115.906;2023-09-12T12:45:58;18.80;99.90
5940;DHT22;2995;-31.998;115.906;2023-09-12T12:48:32;18.80;99.90
5940;DHT22;2995;-31.998;115.906;2023-09-12T12:51:15;18.80;99.90
5940;DHT22;2995;-31.998;115.906;2023-09-12T12:53:47;18.80;99.90
5940;DHT22;2995;-31.998;115.906;2023-09-12T12:56:22;18.70;99.90
5940;DHT22;2995;-31.998;115.906;2023-09-12T12:58:55;18.60;99.90
5940;DHT22;2995;-31.998;115.906;2023-09-12T13:01:28;18.60;99.90
5940;DHT22;2995;-31.998;115.906;2023-09-12T13:04:00;18.50;99.90
5940;DHT22;2995;-31.998;115.906;2023-09-12T13:06:31;18.40;99.90
5940;DHT22;2995;-31.998;115.906;2023-09-12T13:09:04;18.40;99.90
5940;DHT22;2995;-31.998;115.906;2023-09-12T13:11:39;18.40;99.90
5940;DHT22;2995;-31.998;115.906;2023-09-12T13:14:10;18.30;99.90
5940;DHT22;2995;-31.998;115.906;2023-09-12T13:16:41;18.30;99.90
5940;DHT22;2995;-31.998;115.906;2023-09-12T13:19:13;18.20;99.90
5940;DHT22;2995;-31.998;115.906;2023-09-12T13:21:44;18.30;99.90
5940;DHT22;2995;-31.998;115.906;2023-09-12T13:24:15;18.20;99.90
5940;DHT22;2995;-31.998;115.906;2023-09-12T13:26:48;18.20;99.90
5940;DHT22;2995;-31.998;115.906;2023-09-12T13:29:19;18.10;99.90
5940;DHT22;2995;-31.998;115.906;2023-09-12T13:31:51;18.10;99.90
5940;DHT22;2995;-31.998;115.906;2023-09-12T13:34:22;18.20;99.90
5940;DHT22;2995;-31.998;115.906;2023-09-12T13:36:53;18.20;99.90
5940;DHT22;2995;-31.998;115.906;2023-09-12T13:39:25;18.30;99.90
5940;DHT22;2995;-31.998;115.906;2023-09-12T13:41:59;18.20;99.90
5940;DHT22;2995;-31.998;115.906;2023-09-12T13:44:33;18.20;99.90
5940;DHT22;2995;-31.998;115.906;2023-09-12T13:47:05;18.20;99.90
5940;DHT22;2995;-31.998;115.906;2023-09-12T13:49:36;18.20;99.90
5940;DHT22;2995;-31.998;115.906;2023-09-12T13:52:07;18.10;99.90
5940;DHT22;2995;-31.998;115.906;2023-09-12T13:54:38;18.10;99.90
5940;DHT22;2995;-31.998;115.906;2023-09-12T13:57:11;18.00;99.90
5940;DHT22;2995;-31.998;115.906;2023-09-12T13:59:43;17.90;99.90
5940;DHT22;2995;-31.998;115.906;2023-09-12T14:02:14;17.80;99.90
5940;DHT22;2995;-31.998;115.906;2023-09-12T14:04:49;17.70;99.90
5940;DHT22;2995;-31.998;115.906;2023-09-12T14:07:20;17.80;99.90
5940;DHT22;2995;-31.998;115.906;2023-09-12T14:09:51;17.70;99.90
5940;DHT22;2995;-31.998;115.906;2023-09-12T14:12:26;17.80;99.90
5940;DHT22;2995;-31.998;115.906;2023-09-12T14:14:57;17.80;99.90
5940;DHT22;2995;-31.998;115.906;2023-09-12T14:17:28;17.90;99.90
5940;DHT22;2995;-31.998;115.906;2023-09-12T14:20:00;17.90;99.90
5940;DHT22;2995;-31.998;115.906;2023-09-12T14:22:31;17.80;99.90
5940;DHT22;2995;-31.998;115.906;2023-09-12T14:25:02;17.80;99.90
5940;DHT22;2995;-31.998;115.906;2023-09-12T14:27:35;17.70;99.90
5940;DHT22;2995;-31.998;115.906;2023-09-12T14:30:07;17.70;99.90
5940;DHT22;2995;-31.998;115.906;2023-09-12T14:32:39;17.80;99.90
5940;DHT22;2995;-31.998;115.906;2023-09-12T14:35:10;17.80;99.90
5940;DHT22;2995;-31.998;115.906;2023-09-12T14:37:41;17.90;99.90
5940;DHT22;2995;-31.998;115.906;2023-09-12T14:40:14;17.90;99.90
5940;DHT22;2995;-31.998;115.906;2023-09-12T14:42:47;17.90;99.90
5940;DHT22;2995;-31.998;115.906;2023-09-12T14:45:18;17.80;99.90
5940;DHT22;2995;-31.998;115.906;2023-09-12T14:47:50;17.80;99.90
5940;DHT22;2995;-31.998;115.906;2023-09-12T14:50:23;17.80;99.90
5940;DHT22;2995;-31.998;115.906;2023-09-12T14:52:57;17.70;99.90
5940;DHT22;2995;-31.998;115.906;2023-09-12T14:55:28;17.60;99.90
5940;DHT22;2995;-31.998;115.906;2023-09-12T14:58:02;17.70;99.90
5940;DHT22;2995;-31.998;115.906;2023-09-12T15:00:33;17.70;99.90
5940;DHT22;2995;-31.998;115.906;2023-09-12T15:03:06;17.80;99.90
5940;DHT22;2995;-31.998;115.906;2023-09-12T15:05:37;17.80;99.90
5940;DHT22;2995;-31.998;115.906;2023-09-12T15:08:08;17.70;99.90
5940;DHT22;2995;-31.998;115.906;2023-09-12T15:10:39;17.70;99.90
5940;DHT22;2995;-31.998;115.906;2023-09-12T15:13:12;17.70;99.90
5940;DHT22;2995;-31.998;115.906;2023-09-12T15:15:44;17.60;99.90
5940;DHT22;2995;-31.998;115.906;2023-09-12T15:18:15;17.60;99.90
5940;DHT22;2995;-31.998;115.906;2023-09-12T15:20:46;17.60;99.90
5940;DHT22;2995;-31.998;115.906;2023-09-12T15:23:17;17.60;99.90
5940;DHT22;2995;-31.998;115.906;2023-09-12T15:25:51;17.50;99.90
5940;DHT22;2995;-31.998;115.906;2023-09-12T15:28:24;17.50;99.90
5940;DHT22;2995;-31.998;115.906;2023-09-12T15:30:55;17.40;99.90
5940;DHT22;2995;-31.998;115.906;2023-09-12T15:33:28;17.40;99.90
5940;DHT22;2995;-31.998;115.906;2023-09-12T15:35:59;17.30;99.90
5940;DHT22;2995;-31.998;115.906;2023-09-12T15:38:30;17.30;99.90
5940;DHT22;2995;-31.998;115.906;2023-09-12T15:41:02;17.20;99.90
5940;DHT22;2995;-31.998;115.906;2023-09-12T15:43:37;17.10;99.90
5940;DHT22;2995;-31.998;115.906;2023-09-12T15:46:09;17.20;99.90
5940;DHT22;2995;-31.998;115.906;2023-09-12T15:48:40;17.30;99.90